createdAt,value
2017-11-19T00:00:41.881Z,0.00
2017-11-19T00:01:41.795Z,0.00
2017-11-19T00:02:41.488Z,0.00
2017-11-19T00:03:41.135Z,0.00
2017-11-19T00:04:41.784Z,0.00
2017-11-19T00:05:42.042Z,0.00
2017-11-19T00:06:41.607Z,0.00
2017-11-19T00:07:41.524Z,0.00
2017-11-19T00:08:41.167Z,0.00
2017-11-19T00:09:41.885Z,0.00
2017-11-19T00:10:41.495Z,0.00
2017-11-19T00:11:41.739Z,0.00
2017-11-19T00:12:41.360Z,0.00
2017-11-19T00:13:41.012Z,0.00
2017-11-19T00:14:41.761Z,0.00
2017-11-19T00:15:41.825Z,0.00
2017-11-19T00:16:41.163Z,0.00
2017-11-19T00:17:41.926Z,0.00
2017-11-19T00:18:41.510Z,0.00
2017-11-19T00:19:42.152Z,0.00
2017-11-19T00:20:41.793Z,0.00
2017-11-19T00:21:41.410Z,0.00
2017-11-19T00:22:41.911Z,0.00
2017-11-19T00:23:41.443Z,0.00
2017-11-19T00:24:41.099Z,0.00
2017-11-19T00:25:42.118Z,0.00
2017-11-19T00:26:42.172Z,0.00
2017-11-19T00:27:41.521Z,0.00
2017-11-19T00:28:41.220Z,0.00
2017-11-19T00:29:42.008Z,0.00
2017-11-19T00:30:41.305Z,0.00
2017-11-19T00:31:42.042Z,0.00
2017-11-19T00:32:42.033Z,0.00
2017-11-19T00:33:41.857Z,0.00
2017-11-19T00:34:41.580Z,0.00
2017-11-19T00:35:41.209Z,0.00
2017-11-19T00:36:41.068Z,0.00
2017-11-19T00:37:41.800Z,0.00
2017-11-19T00:38:41.636Z,0.00
2017-11-19T00:39:41.347Z,0.00
2017-11-19T00:40:42.791Z,0.00
2017-11-19T00:41:41.668Z,0.00
2017-11-19T00:42:41.467Z,0.00
2017-11-19T00:43:41.187Z,0.00
2017-11-19T00:44:41.891Z,0.00
2017-11-19T00:45:51.108Z,0.00
2017-11-19T00:46:51.720Z,0.00
2017-11-19T00:47:51.290Z,0.00
2017-11-19T00:48:52.064Z,0.00
2017-11-19T00:49:51.802Z,0.00
2017-11-19T00:50:51.938Z,0.00
2017-11-19T00:51:51.920Z,0.00
2017-11-19T00:52:51.270Z,0.00
2017-11-19T00:53:52.049Z,0.00
2017-11-19T00:54:51.742Z,0.00
2017-11-19T00:55:51.899Z,0.00
2017-11-19T00:56:51.571Z,0.00
2017-11-19T00:57:51.380Z,0.00
2017-11-19T00:58:51.440Z,0.00
2017-11-19T00:59:52.072Z,0.00
2017-11-19T01:00:51.138Z,0.00
2017-11-19T01:01:51.809Z,0.00
2017-11-19T01:02:51.627Z,0.00
2017-11-19T01:03:51.889Z,0.00
2017-11-19T01:04:51.672Z,0.00
2017-11-19T01:05:51.395Z,0.00
2017-11-19T01:06:51.549Z,0.00
2017-11-19T01:07:51.853Z,0.00
2017-11-19T01:08:51.723Z,0.00
2017-11-19T01:09:51.711Z,0.00
2017-11-19T01:10:52.154Z,0.00
2017-11-19T01:11:52.013Z,0.00
2017-11-19T01:12:51.689Z,0.00
2017-11-19T01:13:51.874Z,0.00
2017-11-19T01:14:51.395Z,0.00
2017-11-19T01:15:50.970Z,0.00
2017-11-19T01:16:51.736Z,0.00
2017-11-19T01:17:51.771Z,0.00
2017-11-19T01:18:51.279Z,0.00
2017-11-19T01:19:51.891Z,0.00
2017-11-19T01:20:51.386Z,0.00
2017-11-19T01:21:52.091Z,0.00
2017-11-19T01:22:51.756Z,0.00
2017-11-19T01:23:51.856Z,0.00
2017-11-19T01:24:51.815Z,0.00
2017-11-19T01:25:51.349Z,0.00
2017-11-19T01:26:51.063Z,0.00
2017-11-19T01:27:51.519Z,0.00
2017-11-19T01:28:51.674Z,0.00
2017-11-19T01:29:51.505Z,0.00
2017-11-19T01:30:52.174Z,0.00
2017-11-19T01:31:51.756Z,0.00
2017-11-19T01:32:52.012Z,0.00
2017-11-19T01:33:51.738Z,0.00
2017-11-19T01:34:51.263Z,0.00
2017-11-19T01:35:51.909Z,0.00
2017-11-19T01:36:51.462Z,0.00
2017-11-19T01:37:51.249Z,0.00
2017-11-19T01:38:51.643Z,0.00
2017-11-19T01:39:51.127Z,0.00
2017-11-19T01:40:51.759Z,2.00
2017-11-19T01:41:51.880Z,0.00
2017-11-19T01:42:51.607Z,0.00
2017-11-19T01:43:51.106Z,0.00
2017-11-19T01:44:51.557Z,0.00
2017-11-19T01:45:51.078Z,0.00
2017-11-19T01:46:51.898Z,0.00
2017-11-19T01:47:51.381Z,0.00
2017-11-19T01:48:52.098Z,0.00
2017-11-19T01:49:58.105Z,0.00
2017-11-19T01:50:52.611Z,0.00
2017-11-19T01:51:51.406Z,0.00
2017-11-19T01:52:53.701Z,0.00
2017-11-19T01:53:51.193Z,0.00
2017-11-19T01:54:54.822Z,0.00
2017-11-19T01:55:52.231Z,0.00
2017-11-19T01:56:52.226Z,0.00
2017-11-19T01:57:54.323Z,0.00
2017-11-19T01:58:51.946Z,0.00
2017-11-19T01:59:51.532Z,0.00
2017-11-19T02:00:51.451Z,0.00
2017-11-19T02:01:52.790Z,0.00
2017-11-19T02:02:52.783Z,0.00
2017-11-19T02:04:20.805Z,0.00
2017-11-19T02:04:52.545Z,0.00
2017-11-19T02:05:53.631Z,0.00
2017-11-19T02:06:51.720Z,0.00
2017-11-19T02:07:51.438Z,0.00
2017-11-19T02:08:52.468Z,0.00
2017-11-19T02:09:51.016Z,0.00
2017-11-19T02:10:52.227Z,0.00
2017-11-19T02:11:51.212Z,0.00
2017-11-19T02:12:51.873Z,0.00
2017-11-19T02:13:51.300Z,0.00
2017-11-19T02:14:51.942Z,0.00
2017-11-19T02:15:51.575Z,0.00
2017-11-19T02:16:51.165Z,0.00
2017-11-19T02:17:51.672Z,0.00
2017-11-19T02:18:51.451Z,0.00
2017-11-19T02:19:51.923Z,0.00
2017-11-19T02:20:51.472Z,0.00
2017-11-19T02:21:51.002Z,0.00
2017-11-19T02:22:51.618Z,0.00
2017-11-19T02:23:51.960Z,0.00
2017-11-19T02:24:51.427Z,0.00
2017-11-19T02:25:51.125Z,0.00
2017-11-19T02:26:51.575Z,0.00
2017-11-19T02:27:51.023Z,0.00
2017-11-19T02:28:51.564Z,0.00
2017-11-19T02:29:51.056Z,0.00
2017-11-19T02:30:51.389Z,0.00
2017-11-19T02:31:51.690Z,0.00
2017-11-19T02:32:51.206Z,0.00
2017-11-19T02:33:51.647Z,0.00
2017-11-19T02:34:51.290Z,0.00
2017-11-19T02:35:51.167Z,0.00
2017-11-19T02:36:51.094Z,0.00
2017-11-19T02:37:51.609Z,0.00
2017-11-19T02:38:51.085Z,0.00
2017-11-19T02:39:51.156Z,0.00
2017-11-19T02:40:51.768Z,0.00
2017-11-19T02:41:51.452Z,0.00
2017-11-19T02:42:52.429Z,0.00
2017-11-19T02:43:51.918Z,0.00
2017-11-19T02:44:51.462Z,0.00
2017-11-19T02:45:51.827Z,0.00
2017-11-19T02:46:51.287Z,0.00
2017-11-19T02:47:51.835Z,0.00
2017-11-19T02:48:51.323Z,0.00
2017-11-19T02:49:51.923Z,0.00
2017-11-19T02:50:51.587Z,0.00
2017-11-19T02:51:51.046Z,0.00
2017-11-19T02:52:51.616Z,0.00
2017-11-19T02:53:51.797Z,0.00
2017-11-19T02:54:51.329Z,0.00
2017-11-19T02:55:51.865Z,0.00
2017-11-19T02:56:51.744Z,0.00
2017-11-19T02:57:51.387Z,0.00
2017-11-19T02:58:51.605Z,0.00
2017-11-19T02:59:51.121Z,0.00
2017-11-19T03:00:51.692Z,0.00
2017-11-19T03:01:51.518Z,0.00
2017-11-19T03:02:51.648Z,0.00
2017-11-19T03:03:51.309Z,0.00
2017-11-19T03:04:51.866Z,0.00
2017-11-19T03:05:51.674Z,0.00
2017-11-19T03:06:51.395Z,0.00
2017-11-19T03:07:51.097Z,0.00
2017-11-19T03:08:51.329Z,0.00
2017-11-19T03:09:51.626Z,0.00
2017-11-19T03:10:51.480Z,0.00
2017-11-19T03:11:52.521Z,0.00
2017-11-19T03:12:51.296Z,0.00
2017-11-19T03:13:51.022Z,0.00
2017-11-19T03:14:51.793Z,0.00
2017-11-19T03:15:51.472Z,0.00
2017-11-19T03:16:51.363Z,0.00
2017-11-19T03:17:51.057Z,0.00
2017-11-19T03:18:51.806Z,0.00
2017-11-19T03:19:51.365Z,0.00
2017-11-19T03:20:51.120Z,0.00
2017-11-19T03:21:51.754Z,0.00
2017-11-19T03:22:51.345Z,0.00
2017-11-19T03:23:51.835Z,0.00
2017-11-19T03:24:51.397Z,0.00
2017-11-19T03:25:51.167Z,0.00
2017-11-19T03:26:51.876Z,0.00
2017-11-19T03:27:51.576Z,0.00
2017-11-19T03:28:51.257Z,0.00
2017-11-19T03:29:51.818Z,0.00
2017-11-19T03:30:51.320Z,0.00
2017-11-19T03:31:51.332Z,0.00
2017-11-19T03:32:51.394Z,0.00
2017-11-19T03:33:51.321Z,0.00
2017-11-19T03:34:51.117Z,0.00
2017-11-19T03:35:51.710Z,0.00
2017-11-19T03:36:51.979Z,0.00
2017-11-19T03:37:51.788Z,0.00
2017-11-19T03:38:51.169Z,0.00
2017-11-19T03:39:52.094Z,0.00
2017-11-19T03:40:51.809Z,0.00
2017-11-19T03:41:51.452Z,0.00
2017-11-19T03:42:51.142Z,0.00
2017-11-19T03:43:51.888Z,0.00
2017-11-19T03:44:50.920Z,0.00
2017-11-19T03:45:52.088Z,0.00
2017-11-19T03:46:51.640Z,0.00
2017-11-19T03:47:51.283Z,0.00
2017-11-19T03:48:51.793Z,0.00
2017-11-19T03:49:51.355Z,0.00
2017-11-19T03:50:51.964Z,0.00
2017-11-19T03:51:51.500Z,0.00
2017-11-19T03:52:50.980Z,0.00
2017-11-19T03:53:51.869Z,0.00
2017-11-19T03:54:51.429Z,0.00
2017-11-19T03:55:51.792Z,0.00
2017-11-19T03:56:51.668Z,0.00
2017-11-19T03:57:51.364Z,0.00
2017-11-19T03:58:51.902Z,0.00
2017-11-19T03:59:51.502Z,0.00
2017-11-19T04:00:51.008Z,0.00
2017-11-19T04:01:51.533Z,0.00
2017-11-19T04:02:51.704Z,0.00
2017-11-19T04:03:51.315Z,0.00
2017-11-19T04:04:51.920Z,0.00
2017-11-19T04:05:51.592Z,0.00
2017-11-19T04:06:51.143Z,0.00
2017-11-19T04:07:51.682Z,0.00
2017-11-19T04:08:51.890Z,0.00
2017-11-19T04:09:51.606Z,0.00
2017-11-19T04:10:51.946Z,0.00
2017-11-19T04:11:51.441Z,0.00
2017-11-19T04:12:51.052Z,0.00
2017-11-19T04:13:51.724Z,0.00
2017-11-19T04:14:51.396Z,0.00
2017-11-19T04:15:51.189Z,0.00
2017-11-19T04:16:51.333Z,0.00
2017-11-19T04:17:51.993Z,0.00
2017-11-19T04:18:51.613Z,0.00
2017-11-19T04:19:51.170Z,0.00
2017-11-19T04:20:51.676Z,0.00
2017-11-19T04:21:51.145Z,0.00
2017-11-19T04:22:51.336Z,0.00
2017-11-19T04:23:51.885Z,0.00
2017-11-19T04:24:51.436Z,0.00
2017-11-19T04:25:50.998Z,0.00
2017-11-19T04:26:51.590Z,0.00
2017-11-19T04:27:51.168Z,0.00
2017-11-19T04:28:51.684Z,0.00
2017-11-19T04:29:51.535Z,0.00
2017-11-19T04:30:51.227Z,0.00
2017-11-19T04:31:51.940Z,0.00
2017-11-19T04:32:51.636Z,0.00
2017-11-19T04:33:51.163Z,0.00
2017-11-19T04:34:51.794Z,0.00
2017-11-19T04:35:51.533Z,0.00
2017-11-19T04:36:51.745Z,0.00
2017-11-19T04:37:51.709Z,0.00
2017-11-19T04:38:51.270Z,0.00
2017-11-19T04:39:51.139Z,0.00
2017-11-19T04:40:51.770Z,0.00
2017-11-19T04:41:51.301Z,0.00
2017-11-19T04:42:51.948Z,0.00
2017-11-19T04:43:51.596Z,0.00
2017-11-19T04:44:51.718Z,0.00
2017-11-19T04:45:51.185Z,0.00
2017-11-19T04:46:51.797Z,0.00
2017-11-19T04:47:51.475Z,0.00
2017-11-19T04:48:51.130Z,0.00
2017-11-19T04:49:51.623Z,0.00
2017-11-19T04:50:51.496Z,0.00
2017-11-19T04:51:51.522Z,0.00
2017-11-19T04:52:51.418Z,0.00
2017-11-19T04:53:50.880Z,0.00
2017-11-19T04:54:51.762Z,0.00
2017-11-19T04:55:51.305Z,0.00
2017-11-19T04:56:51.804Z,0.00
2017-11-19T04:57:51.241Z,0.00
2017-11-19T04:58:51.689Z,0.00
2017-11-19T04:59:51.269Z,0.00
2017-11-19T05:00:51.763Z,0.00
2017-11-19T05:01:51.207Z,0.00
2017-11-19T05:02:51.639Z,0.00
2017-11-19T05:03:51.240Z,0.00
2017-11-19T05:04:51.740Z,0.00
2017-11-19T05:05:51.163Z,0.00
2017-11-19T05:06:51.645Z,0.00
2017-11-19T05:07:51.179Z,0.00
2017-11-19T05:08:51.605Z,0.00
2017-11-19T05:09:51.127Z,0.00
2017-11-19T05:10:51.048Z,0.00
2017-11-19T05:11:51.582Z,0.00
2017-11-19T05:12:51.087Z,0.00
2017-11-19T05:13:51.573Z,0.00
2017-11-19T05:14:51.429Z,0.00
2017-11-19T05:15:51.937Z,0.00
2017-11-19T05:16:51.519Z,0.00
2017-11-19T05:17:51.017Z,0.00
2017-11-19T05:18:51.416Z,0.00
2017-11-19T05:19:51.978Z,0.00
2017-11-19T05:20:51.311Z,0.00
2017-11-19T05:21:51.775Z,0.00
2017-11-19T05:22:51.277Z,0.00
2017-11-19T05:23:51.796Z,0.00
2017-11-19T05:24:51.304Z,0.00
2017-11-19T05:25:51.722Z,0.00
2017-11-19T05:26:50.938Z,0.00
2017-11-19T05:27:51.836Z,0.00
2017-11-19T05:28:51.677Z,0.00
2017-11-19T05:29:51.051Z,0.00
2017-11-19T05:30:51.551Z,0.00
2017-11-19T05:31:51.309Z,0.00
2017-11-19T05:32:51.799Z,0.00
2017-11-19T05:33:52.574Z,0.00
2017-11-19T05:34:50.989Z,0.00
2017-11-19T05:35:51.497Z,0.00
2017-11-19T05:36:51.008Z,0.00
2017-11-19T05:37:51.460Z,0.00
2017-11-19T05:38:50.961Z,0.00
2017-11-19T05:39:51.043Z,0.00
2017-11-19T05:40:51.437Z,0.00
2017-11-19T05:41:51.034Z,0.00
2017-11-19T05:42:51.500Z,0.00
2017-11-19T05:43:51.897Z,0.00
2017-11-19T05:44:51.344Z,0.00
2017-11-19T05:45:51.754Z,0.00
2017-11-19T05:46:51.184Z,0.00
2017-11-19T05:47:51.794Z,0.00
2017-11-19T05:48:51.212Z,0.00
2017-11-19T05:49:51.636Z,0.00
2017-11-19T05:50:51.057Z,0.00
2017-11-19T05:51:51.564Z,0.00
2017-11-19T05:52:51.021Z,0.00
2017-11-19T05:53:51.438Z,0.00
2017-11-19T05:54:51.853Z,0.00
2017-11-19T05:55:51.500Z,0.00
2017-11-19T05:56:51.023Z,0.00
2017-11-19T05:57:52.111Z,0.00
2017-11-19T05:58:51.594Z,0.00
2017-11-19T05:59:51.217Z,0.00
2017-11-19T06:00:51.753Z,0.00
2017-11-19T06:01:51.814Z,0.00
2017-11-19T06:02:51.354Z,0.00
2017-11-19T06:03:51.890Z,0.00
2017-11-19T06:04:51.496Z,0.00
2017-11-19T06:05:50.969Z,0.00
2017-11-19T06:06:51.378Z,0.00
2017-11-19T06:07:51.939Z,0.00
2017-11-19T06:08:51.789Z,1.00
2017-11-19T06:09:51.509Z,1.00
2017-11-19T06:10:50.939Z,1.00
2017-11-19T06:11:51.449Z,0.00
2017-11-19T06:12:51.847Z,1.00
2017-11-19T06:13:51.422Z,1.00
2017-11-19T06:14:51.867Z,1.00
2017-11-19T06:15:51.344Z,1.00
2017-11-19T06:16:51.908Z,2.00
2017-11-19T06:17:51.560Z,2.00
2017-11-19T06:18:51.177Z,2.00
2017-11-19T06:19:51.808Z,3.00
2017-11-19T06:20:51.539Z,3.00
2017-11-19T06:21:51.751Z,4.00
2017-11-19T06:22:51.251Z,4.00
2017-11-19T06:23:51.043Z,5.00
2017-11-19T06:24:51.720Z,6.00
2017-11-19T06:25:51.237Z,7.00
2017-11-19T06:26:51.148Z,8.00
2017-11-19T06:27:51.766Z,10.00
2017-11-19T06:28:51.337Z,11.00
2017-11-19T06:29:51.893Z,14.00
2017-11-19T06:30:52.689Z,17.00
2017-11-19T06:31:51.225Z,19.00
2017-11-19T06:32:51.619Z,23.00
2017-11-19T06:33:51.686Z,27.00
2017-11-19T06:34:51.185Z,31.00
2017-11-19T06:35:51.727Z,36.00
2017-11-19T06:36:51.976Z,43.00
2017-11-19T06:37:51.487Z,50.00
2017-11-19T06:38:51.105Z,58.00
2017-11-19T06:39:51.451Z,66.00
2017-11-19T06:40:51.994Z,76.00
2017-11-19T06:41:51.596Z,87.00
2017-11-19T06:42:51.038Z,99.00
2017-11-19T06:43:51.655Z,113.00
2017-11-19T06:44:51.364Z,128.00
2017-11-19T06:45:51.686Z,144.00
2017-11-19T06:46:51.245Z,162.00
2017-11-19T06:47:51.825Z,180.00
2017-11-19T06:48:51.228Z,200.00
2017-11-19T06:49:51.759Z,222.00
2017-11-19T06:50:51.296Z,246.00
2017-11-19T06:51:51.900Z,271.00
2017-11-19T06:52:51.582Z,296.00
2017-11-19T06:53:51.231Z,324.00
2017-11-19T06:54:51.860Z,353.00
2017-11-19T06:55:51.542Z,383.00
2017-11-19T06:56:51.144Z,415.00
2017-11-19T06:57:51.874Z,467.00
2017-11-19T06:58:51.603Z,512.00
2017-11-19T06:59:51.255Z,514.00
2017-11-19T07:00:51.806Z,563.00
2017-11-19T07:01:51.922Z,650.00
2017-11-19T07:02:51.157Z,702.00
2017-11-19T07:03:51.091Z,755.00
2017-11-19T07:04:52.268Z,800.00
2017-11-19T07:05:51.896Z,800.00
2017-11-19T07:06:51.674Z,774.00
2017-11-19T07:07:51.322Z,819.00
2017-11-19T07:08:52.100Z,878.00
2017-11-19T07:09:51.749Z,941.00
2017-11-19T07:10:51.436Z,950.00
2017-11-19T07:11:51.071Z,907.00
2017-11-19T07:12:51.811Z,1057.00
2017-11-19T07:13:51.507Z,1180.00
2017-11-19T07:14:51.164Z,1187.00
2017-11-19T07:15:51.836Z,1171.00
2017-11-19T07:16:51.549Z,1147.00
2017-11-19T07:17:51.156Z,1152.00
2017-11-19T07:18:51.860Z,1163.00
2017-11-19T07:19:51.593Z,1229.00
2017-11-19T07:20:51.283Z,1246.00
2017-11-19T07:21:51.322Z,1266.00
2017-11-19T07:22:51.985Z,1317.00
2017-11-19T07:23:51.637Z,1334.00
2017-11-19T07:24:51.311Z,1391.00
2017-11-19T07:25:51.960Z,1479.00
2017-11-19T07:26:51.648Z,1587.00
2017-11-19T07:27:51.201Z,1761.00
2017-11-19T07:28:51.903Z,2008.00
2017-11-19T07:29:51.588Z,2266.00
2017-11-19T07:30:52.010Z,2862.00
2017-11-19T07:31:51.582Z,3427.00
2017-11-19T07:32:51.306Z,3012.00
2017-11-19T07:33:51.961Z,2376.00
2017-11-19T07:34:51.603Z,2234.00
2017-11-19T07:35:51.291Z,1968.00
2017-11-19T07:36:52.002Z,1722.00
2017-11-19T07:37:51.639Z,1712.00
2017-11-19T07:38:51.374Z,1825.00
2017-11-19T07:39:51.102Z,1246.00
2017-11-19T07:40:51.665Z,1092.00
2017-11-19T07:41:51.285Z,1108.00
2017-11-19T07:42:51.942Z,1078.00
2017-11-19T07:43:51.293Z,1025.00
2017-11-19T07:44:51.867Z,1285.00
2017-11-19T07:45:51.608Z,1551.00
2017-11-19T07:46:51.491Z,1729.00
2017-11-19T07:47:51.274Z,1904.00
2017-11-19T07:48:51.771Z,2143.00
2017-11-19T07:49:51.929Z,2233.00
2017-11-19T07:50:51.835Z,2341.00
2017-11-19T07:51:51.524Z,2378.00
2017-11-19T07:52:51.223Z,2602.00
2017-11-19T07:53:51.922Z,2940.00
2017-11-19T07:54:51.193Z,3379.00
2017-11-19T07:55:51.302Z,4011.00
2017-11-19T07:56:52.090Z,3882.00
2017-11-19T07:57:51.762Z,2643.00
2017-11-19T07:58:51.410Z,2327.00
2017-11-19T07:59:51.248Z,4398.00
2017-11-19T08:00:53.427Z,4983.00
2017-11-19T08:01:51.884Z,3754.00
2017-11-19T08:02:51.483Z,3409.00
2017-11-19T08:03:51.165Z,2630.00
2017-11-19T08:04:51.888Z,1992.00
2017-11-19T08:05:51.902Z,1927.00
2017-11-19T08:06:51.498Z,1758.00
2017-11-19T08:07:51.880Z,1827.00
2017-11-19T08:08:51.213Z,2158.00
2017-11-19T08:09:51.979Z,2479.00
2017-11-19T08:10:51.905Z,2647.00
2017-11-19T08:11:51.532Z,2974.00
2017-11-19T08:12:51.222Z,3351.00
2017-11-19T08:13:51.876Z,3706.00
2017-11-19T08:14:51.550Z,4022.00
2017-11-19T08:15:51.307Z,3848.00
2017-11-19T08:16:52.032Z,4278.00
2017-11-19T08:17:51.719Z,4744.00
2017-11-19T08:18:51.403Z,4738.00
2017-11-19T08:19:51.141Z,4450.00
2017-11-19T08:20:51.983Z,4077.00
2017-11-19T08:21:52.073Z,4044.00
2017-11-19T08:22:51.984Z,4726.00
2017-11-19T08:23:51.819Z,6364.00
2017-11-19T08:24:51.397Z,6020.00
2017-11-19T08:25:52.134Z,6260.00
2017-11-19T08:26:51.796Z,7387.00
2017-11-19T08:27:51.834Z,8755.00
2017-11-19T08:28:51.192Z,7544.00
2017-11-19T08:29:52.540Z,6590.00
2017-11-19T08:30:51.191Z,6093.00
2017-11-19T08:31:51.963Z,7375.00
2017-11-19T08:32:51.640Z,8787.00
2017-11-19T08:33:51.244Z,9090.00
2017-11-19T08:34:52.063Z,9773.00
2017-11-19T08:35:51.674Z,8351.00
2017-11-19T08:36:51.731Z,6651.00
2017-11-19T08:37:51.586Z,4665.00
2017-11-19T08:38:51.251Z,5315.00
2017-11-19T08:39:52.409Z,6747.00
2017-11-19T08:40:52.074Z,7436.00
2017-11-19T08:41:51.297Z,8016.00
2017-11-19T08:42:51.990Z,8880.00
2017-11-19T08:43:51.564Z,10554.00
2017-11-19T08:44:51.182Z,11613.00
2017-11-19T08:45:51.937Z,10609.00
2017-11-19T08:46:51.733Z,10973.00
2017-11-19T08:47:51.551Z,10183.00
2017-11-19T08:48:51.571Z,8160.00
2017-11-19T08:49:52.015Z,6484.00
2017-11-19T08:50:51.605Z,5289.00
2017-11-19T08:51:51.195Z,6194.00
2017-11-19T08:52:51.891Z,9567.00
2017-11-19T08:53:52.007Z,11431.00
2017-11-19T08:54:51.669Z,10359.00
2017-11-19T08:55:51.631Z,8556.00
2017-11-19T08:56:51.900Z,6034.00
2017-11-19T08:57:51.834Z,5237.00
2017-11-19T08:58:51.255Z,5631.00
2017-11-19T08:59:51.877Z,7712.00
2017-11-19T09:00:51.558Z,7772.00
2017-11-19T09:01:51.385Z,6707.00
2017-11-19T09:02:52.635Z,7821.00
2017-11-19T09:03:51.349Z,10428.00
2017-11-19T09:04:52.038Z,11284.00
2017-11-19T09:05:51.839Z,9786.00
2017-11-19T09:06:51.437Z,8538.00
2017-11-19T09:07:51.285Z,12332.00
2017-11-19T09:08:52.105Z,9407.00
2017-11-19T09:09:51.937Z,9176.00
2017-11-19T09:10:51.457Z,9031.00
2017-11-19T09:11:51.194Z,8234.00
2017-11-19T09:12:51.927Z,7221.00
2017-11-19T09:13:51.603Z,7775.00
2017-11-19T09:14:51.601Z,6411.00
2017-11-19T09:15:51.505Z,7229.00
2017-11-19T09:16:51.242Z,13350.00
2017-11-19T09:17:51.860Z,24032.00
2017-11-19T09:18:52.243Z,20208.00
2017-11-19T09:19:51.991Z,18176.00
2017-11-19T09:20:52.480Z,14598.00
2017-11-19T09:21:51.151Z,11018.00
2017-11-19T09:22:51.872Z,12013.00
2017-11-19T09:23:51.592Z,10728.00
2017-11-19T09:24:51.267Z,7455.00
2017-11-19T09:25:51.324Z,4678.00
2017-11-19T09:26:51.988Z,5351.00
2017-11-19T09:27:51.668Z,7310.00
2017-11-19T09:28:51.300Z,6496.00
2017-11-19T09:29:51.744Z,8625.00
2017-11-19T09:30:51.461Z,12559.00
2017-11-19T09:31:53.255Z,11292.00
2017-11-19T09:32:51.216Z,12318.00
2017-11-19T09:33:53.378Z,14771.00
2017-11-19T09:34:52.021Z,6840.00
2017-11-19T09:35:52.227Z,4433.00
2017-11-19T09:36:52.477Z,4654.00
2017-11-19T09:37:52.471Z,5090.00
2017-11-19T09:38:52.213Z,4661.00
2017-11-19T09:39:52.486Z,6452.00
2017-11-19T09:40:52.452Z,8308.00
2017-11-19T09:41:51.825Z,8777.00
2017-11-19T09:42:52.927Z,15232.00
2017-11-19T09:43:51.725Z,19056.00
2017-11-19T09:44:52.521Z,14635.00
2017-11-19T09:45:52.420Z,11367.00
2017-11-19T09:46:51.387Z,11850.00
2017-11-19T09:47:51.353Z,13827.00
2017-11-19T09:48:52.281Z,10004.00
2017-11-19T09:49:52.077Z,7107.00
2017-11-19T09:50:52.018Z,8981.00
2017-11-19T09:51:52.165Z,11891.00
2017-11-19T09:52:52.064Z,14528.00
2017-11-19T09:53:52.099Z,12874.00
2017-11-19T09:54:52.047Z,15404.00
2017-11-19T09:55:52.021Z,10365.00
2017-11-19T09:56:51.983Z,12402.00
2017-11-19T09:57:51.965Z,10055.00
2017-11-19T09:58:52.066Z,10920.00
2017-11-19T09:59:52.040Z,10141.00
2017-11-19T10:00:51.987Z,15641.00
2017-11-19T10:01:51.990Z,18904.00
2017-11-19T10:02:52.030Z,13818.00
2017-11-19T10:03:51.573Z,13601.00
2017-11-19T10:04:51.516Z,13482.00
2017-11-19T10:05:51.745Z,20728.00
2017-11-19T10:06:51.607Z,20072.00
2017-11-19T10:07:51.550Z,15870.00
2017-11-19T10:08:51.492Z,16640.00
2017-11-19T10:09:51.532Z,13780.00
2017-11-19T10:10:51.660Z,19880.00
2017-11-19T10:11:51.704Z,20488.00
2017-11-19T10:12:52.287Z,14333.00
2017-11-19T10:13:52.268Z,13204.00
2017-11-19T10:14:52.803Z,16200.00
2017-11-19T10:15:51.716Z,10920.00
2017-11-19T10:16:51.489Z,10476.00
2017-11-19T10:17:51.521Z,15329.00
2017-11-19T10:18:51.478Z,13884.00
2017-11-19T10:19:51.559Z,16776.00
2017-11-19T10:20:51.538Z,22312.00
2017-11-19T10:21:51.541Z,29288.00
2017-11-19T10:22:51.824Z,19344.00
2017-11-19T10:23:52.540Z,18392.00
2017-11-19T10:24:52.248Z,17104.00
2017-11-19T10:25:52.229Z,19448.00
2017-11-19T10:26:52.268Z,23288.00
2017-11-19T10:27:54.815Z,17704.00
2017-11-19T10:28:51.348Z,18072.00
2017-11-19T10:29:52.114Z,17824.00
2017-11-19T10:30:51.439Z,15329.00
2017-11-19T10:31:51.337Z,19272.00
2017-11-19T10:32:52.176Z,18784.00
2017-11-19T10:33:51.995Z,14233.00
2017-11-19T10:34:51.859Z,13526.00
2017-11-19T10:35:54.908Z,14607.00
2017-11-19T10:36:51.713Z,12631.00
2017-11-19T10:37:51.425Z,12526.00
2017-11-19T10:38:52.193Z,18032.00
2017-11-19T10:39:52.168Z,23400.00
2017-11-19T10:40:52.013Z,22544.00
2017-11-19T10:41:51.756Z,13350.00
2017-11-19T10:42:51.467Z,9707.00
2017-11-19T10:43:51.239Z,10443.00
2017-11-19T10:44:53.085Z,10861.00
2017-11-19T10:45:51.830Z,8695.00
2017-11-19T10:46:51.653Z,11141.00
2017-11-19T10:47:51.506Z,11371.00
2017-11-19T10:48:51.347Z,13656.00
2017-11-19T10:49:51.174Z,14158.00
2017-11-19T10:50:52.093Z,15965.00
2017-11-19T10:51:56.993Z,12893.00
2017-11-19T10:52:56.815Z,14582.00
2017-11-19T10:53:59.266Z,14482.00
2017-11-19T10:54:57.641Z,10985.00
2017-11-19T10:55:58.065Z,8713.00
2017-11-19T10:56:56.844Z,7801.00
2017-11-19T10:57:57.388Z,8542.00
2017-11-19T10:58:57.069Z,8132.00
2017-11-19T10:59:56.762Z,7218.00
2017-11-19T11:00:57.388Z,6204.00
2017-11-19T11:01:56.709Z,6340.00
2017-11-19T11:02:57.428Z,6842.00
2017-11-19T11:03:57.128Z,6945.00
2017-11-19T11:04:56.897Z,5929.00
2017-11-19T11:05:57.317Z,5314.00
2017-11-19T11:06:57.744Z,6682.00
2017-11-19T11:07:58.049Z,7972.00
2017-11-19T11:08:56.782Z,8897.00
2017-11-19T11:09:57.411Z,9936.00
2017-11-19T11:10:57.230Z,11273.00
2017-11-19T11:11:57.076Z,12626.00
2017-11-19T11:12:57.543Z,13881.00
2017-11-19T11:13:57.050Z,14287.00
2017-11-19T11:14:57.384Z,14477.00
2017-11-19T11:15:57.194Z,14770.00
2017-11-19T11:16:57.034Z,14677.00
2017-11-19T11:17:57.419Z,14458.00
2017-11-19T11:18:57.240Z,12683.00
2017-11-19T11:19:56.896Z,10403.00
2017-11-19T11:20:56.698Z,10335.00
2017-11-19T11:21:58.567Z,10301.00
2017-11-19T11:22:57.372Z,10348.00
2017-11-19T11:23:57.289Z,8003.00
2017-11-19T11:24:56.963Z,5605.00
2017-11-19T11:25:56.702Z,4718.00
2017-11-19T11:26:57.362Z,5220.00
2017-11-19T11:27:57.932Z,4690.00
2017-11-19T11:28:58.339Z,5667.00
2017-11-19T11:29:57.275Z,7311.00
2017-11-19T11:30:57.633Z,7020.00
2017-11-19T11:31:57.433Z,7309.00
2017-11-19T11:32:57.247Z,7561.00
2017-11-19T11:33:57.657Z,6829.00
2017-11-19T11:34:57.463Z,6656.00
2017-11-19T11:35:57.192Z,7193.00
2017-11-19T11:36:56.978Z,8663.00
2017-11-19T11:37:56.982Z,10421.00
2017-11-19T11:38:57.700Z,17336.00
2017-11-19T11:39:57.682Z,24784.00
2017-11-19T11:40:57.512Z,31024.00
2017-11-19T11:41:57.391Z,27936.00
2017-11-19T11:42:57.942Z,26328.00
2017-11-19T11:43:56.702Z,26424.00
2017-11-19T11:44:57.054Z,27248.00
2017-11-19T11:45:56.858Z,26632.00
2017-11-19T11:46:57.728Z,29360.00
2017-11-19T11:47:57.595Z,36728.00
2017-11-19T11:48:57.606Z,33296.00
2017-11-19T11:49:57.445Z,29168.00
2017-11-19T11:50:57.961Z,15154.00
2017-11-19T11:51:56.874Z,12683.00
2017-11-19T11:52:59.055Z,10772.00
2017-11-19T11:53:56.803Z,9745.00
2017-11-19T11:54:57.581Z,8657.00
2017-11-19T11:55:57.352Z,9268.00
2017-11-19T11:56:58.570Z,18320.00
2017-11-19T11:57:57.384Z,12009.00
2017-11-19T11:58:57.271Z,19000.00
2017-11-19T11:59:57.136Z,22752.00
2017-11-19T12:00:56.900Z,11827.00
2017-11-19T12:01:57.339Z,9044.00
2017-11-19T12:02:56.848Z,8447.00
2017-11-19T12:03:57.533Z,10531.00
2017-11-19T12:04:57.387Z,8807.00
2017-11-19T12:05:57.118Z,8886.00
2017-11-19T12:06:57.043Z,10943.00
2017-11-19T12:07:57.043Z,19152.00
2017-11-19T12:08:56.878Z,16624.00
2017-11-19T12:09:57.745Z,15303.00
2017-11-19T12:10:57.420Z,13871.00
2017-11-19T12:11:57.330Z,13565.00
2017-11-19T12:12:57.078Z,11930.00
2017-11-19T12:13:57.692Z,12185.00
2017-11-19T12:14:57.534Z,12827.00
2017-11-19T12:15:57.110Z,13299.00
2017-11-19T12:16:57.629Z,13391.00
2017-11-19T12:17:57.732Z,13848.00
2017-11-19T12:18:57.590Z,13794.00
2017-11-19T12:19:58.589Z,13949.00
2017-11-19T12:20:57.650Z,14627.00
2017-11-19T12:21:58.120Z,17640.00
2017-11-19T12:22:58.088Z,17808.00
2017-11-19T12:23:57.851Z,19064.00
2017-11-19T12:24:58.489Z,17136.00
2017-11-19T12:25:59.129Z,14628.00
2017-11-19T12:26:57.079Z,12912.00
2017-11-19T12:27:57.106Z,13681.00
2017-11-19T12:28:57.769Z,14157.00
2017-11-19T12:29:59.168Z,11979.00
2017-11-19T12:30:57.681Z,11140.00
2017-11-19T12:31:57.745Z,10552.00
2017-11-19T12:32:57.752Z,11596.00
2017-11-19T12:33:59.100Z,11312.00
2017-11-19T12:34:57.869Z,11190.00
2017-11-19T12:35:56.964Z,12007.00
2017-11-19T12:36:57.039Z,11229.00
2017-11-19T12:37:56.928Z,10860.00
2017-11-19T12:38:56.992Z,11301.00